createdAt,value
2023-06-23T00:01:11.022Z,97.63
2023-06-23T00:03:40.075Z,96.95
2023-06-23T00:06:07.847Z,97.67
2023-06-23T00:08:36.283Z,97.81
2023-06-23T00:11:04.001Z,96.68
2023-06-23T00:13:35.990Z,97.20
2023-06-23T00:16:05.404Z,97.16
2023-06-23T00:18:35.001Z,96.48
2023-06-23T00:21:05.465Z,96.81
2023-06-23T00:23:33.395Z,96.43
2023-06-23T00:26:03.156Z,95.53
2023-06-23T00:28:32.742Z,95.58
2023-06-23T00:31:00.443Z,95.79
2023-06-23T00:33:28.442Z,96.28
2023-06-23T00:35:57.449Z,95.39
2023-06-23T00:38:26.554Z,96.16
2023-06-23T00:40:54.649Z,96.27
2023-06-23T00:43:22.464Z,96.63
2023-06-23T00:45:50.595Z,96.27
2023-06-23T00:48:18.706Z,96.57
2023-06-23T00:50:46.983Z,97.11
2023-06-23T00:53:18.099Z,97.67
2023-06-23T00:55:47.973Z,97.64
2023-06-23T00:58:15.828Z,97.83
2023-06-23T01:00:43.479Z,96.97
2023-06-23T01:03:12.011Z,97.36
2023-06-23T01:05:41.293Z,96.62
2023-06-23T01:08:20.100Z,96.49
2023-06-23T01:10:52.190Z,96.94
2023-06-23T01:13:28.404Z,97.16
2023-06-23T01:15:59.454Z,96.88
2023-06-23T01:18:35.359Z,96.20
2023-06-23T01:21:05.738Z,96.38
2023-06-23T01:23:51.290Z,96.24
2023-06-23T01:26:34.630Z,95.21
2023-06-23T01:29:08.923Z,95.34
2023-06-23T01:31:39.223Z,96.45
2023-06-23T01:34:09.381Z,96.84
2023-06-23T01:36:40.217Z,96.76
2023-06-23T01:39:09.989Z,96.54
2023-06-23T01:41:42.437Z,97.22
2023-06-23T01:44:15.357Z,97.45
2023-06-23T01:46:46.743Z,97.79
2023-06-23T01:49:18.859Z,97.00
2023-06-23T01:51:47.967Z,96.93
2023-06-23T01:54:16.640Z,96.11
2023-06-23T01:56:45.084Z,96.87
2023-06-23T01:59:15.108Z,96.61
2023-06-23T02:01:44.885Z,95.36
2023-06-23T02:04:13.209Z,96.52
2023-06-23T02:06:42.380Z,96.36
2023-06-23T02:09:12.762Z,96.73
2023-06-23T02:11:40.571Z,96.82
2023-06-23T02:14:09.023Z,95.21
2023-06-23T02:16:38.523Z,95.62
2023-06-23T02:19:06.566Z,97.20
2023-06-23T02:21:34.799Z,96.73
2023-06-23T02:24:05.971Z,97.34
2023-06-23T02:26:35.137Z,96.98
2023-06-23T02:29:03.020Z,97.08
2023-06-23T02:31:31.122Z,97.03
2023-06-23T02:34:00.381Z,96.19
2023-06-23T02:36:34.440Z,95.60
2023-06-23T02:39:05.992Z,95.79
2023-06-23T02:41:35.721Z,94.70
2023-06-23T02:44:07.804Z,94.76
2023-06-23T02:46:39.914Z,95.53
2023-06-23T02:49:12.673Z,94.40
2023-06-23T02:51:42.080Z,94.94
2023-06-23T02:54:13.607Z,95.92
2023-06-23T02:56:44.511Z,96.13
2023-06-23T02:59:14.903Z,96.51
2023-06-23T03:01:45.374Z,97.81
2023-06-23T03:04:14.582Z,99.24
2023-06-23T03:06:45.448Z,99.12
2023-06-23T03:09:13.612Z,99.66
2023-06-23T03:11:41.289Z,98.88
2023-06-23T03:14:09.716Z,98.39
2023-06-23T03:16:41.131Z,98.62
2023-06-23T03:19:21.695Z,99.37
2023-06-23T03:21:53.486Z,100.00
2023-06-23T03:24:21.867Z,100.00
2023-06-23T03:26:51.129Z,100.00
2023-06-23T03:29:21.555Z,100.00
2023-06-23T03:31:51.800Z,100.00
2023-06-23T03:34:22.009Z,100.00
2023-06-23T03:36:50.204Z,100.00
2023-06-23T03:39:21.370Z,100.00
2023-06-23T03:41:49.815Z,100.00
2023-06-23T03:44:23.192Z,100.00
2023-06-23T03:46:53.618Z,100.00
2023-06-23T03:49:25.058Z,100.00
2023-06-23T03:51:54.728Z,100.00
2023-06-23T03:54:22.760Z,100.00
2023-06-23T03:56:51.585Z,100.00
2023-06-23T03:59:20.239Z,100.00
2023-06-23T04:01:49.481Z,100.00
2023-06-23T04:04:17.617Z,100.00
2023-06-23T04:06:47.686Z,100.00
2023-06-23T04:09:17.222Z,100.00
2023-06-23T04:11:45.580Z,100.00
2023-06-23T04:14:14.656Z,100.00
2023-06-23T04:16:42.984Z,100.00
2023-06-23T04:19:13.241Z,100.00
2023-06-23T04:21:41.063Z,100.00
2023-06-23T04:24:10.503Z,100.00
2023-06-23T04:26:39.271Z,100.00
2023-06-23T04:29:08.549Z,100.00
2023-06-23T04:31:36.770Z,100.00
2023-06-23T04:34:04.481Z,100.00
2023-06-23T04:36:36.142Z,100.00
2023-06-23T04:39:12.930Z,100.00
2023-06-23T04:41:42.105Z,100.00
2023-06-23T04:44:10.933Z,100.00
2023-06-23T04:46:41.335Z,100.00
2023-06-23T04:49:10.165Z,100.00
2023-06-23T04:51:41.576Z,100.00
2023-06-23T04:54:14.183Z,100.00
2023-06-23T04:56:42.563Z,100.00
2023-06-23T04:59:11.810Z,98.92
2023-06-23T05:01:40.433Z,98.50
2023-06-23T05:04:10.123Z,98.54
2023-06-23T05:06:38.854Z,99.38
2023-06-23T05:09:07.363Z,98.61
2023-06-23T05:11:37.246Z,99.24
2023-06-23T05:14:06.005Z,97.05
2023-06-23T05:16:34.521Z,97.20
2023-06-23T05:19:02.771Z,97.41
2023-06-23T05:21:31.555Z,98.66
2023-06-23T05:23:59.507Z,98.30
2023-06-23T05:26:27.552Z,97.30
2023-06-23T05:28:57.023Z,95.31
2023-06-23T05:31:25.794Z,95.52
2023-06-23T05:33:54.031Z,94.05
2023-06-23T05:36:21.984Z,91.18
2023-06-23T05:38:50.567Z,93.06
2023-06-23T05:41:18.229Z,93.38
2023-06-23T05:43:45.903Z,93.65
2023-06-23T05:46:17.552Z,91.75
2023-06-23T05:48:49.973Z,90.26
2023-06-23T05:51:19.864Z,90.07
2023-06-23T05:53:48.628Z,91.07
2023-06-23T05:56:19.201Z,89.96
2023-06-23T05:58:47.794Z,89.13
2023-06-23T06:01:20.318Z,88.87
2023-06-23T06:03:49.945Z,88.88
2023-06-23T06:06:17.950Z,89.74
2023-06-23T06:08:46.361Z,90.27
2023-06-23T06:11:17.736Z,89.77
2023-06-23T06:13:47.825Z,90.79
2023-06-23T06:16:17.467Z,90.46
2023-06-23T06:18:45.901Z,89.78
2023-06-23T06:21:14.168Z,89.09
2023-06-23T06:23:42.860Z,89.34
2023-06-23T06:26:11.638Z,90.05
2023-06-23T06:28:40.905Z,88.93
2023-06-23T06:31:09.427Z,87.20
2023-06-23T06:33:39.945Z,87.94
2023-06-23T06:36:09.501Z,86.60
2023-06-23T06:38:39.396Z,85.65
2023-06-23T06:41:08.338Z,84.81
2023-06-23T06:43:36.260Z,85.35
2023-06-23T06:46:05.362Z,83.94
2023-06-23T06:48:35.686Z,84.30
2023-06-23T06:51:06.486Z,83.51
2023-06-23T06:53:34.126Z,83.98
2023-06-23T06:56:01.886Z,83.31
2023-06-23T06:58:29.666Z,80.82
2023-06-23T07:00:58.216Z,80.94
2023-06-23T07:03:27.032Z,82.01
2023-06-23T07:05:54.885Z,80.70
2023-06-23T07:08:23.949Z,80.88
2023-06-23T07:10:51.616Z,79.50
2023-06-23T07:13:19.431Z,79.96
2023-06-23T07:15:47.118Z,78.72
2023-06-23T07:18:15.390Z,79.12
2023-06-23T07:20:43.064Z,77.68
2023-06-23T07:23:10.866Z,78.01
2023-06-23T07:25:39.942Z,77.07
2023-06-23T07:28:07.747Z,77.56
2023-06-23T07:30:35.664Z,77.13
2023-06-23T07:33:03.707Z,77.21
2023-06-23T07:35:31.461Z,77.24
2023-06-23T07:37:59.085Z,75.25
2023-06-23T07:40:26.706Z,75.69
2023-06-23T07:42:55.723Z,74.70
2023-06-23T07:45:23.840Z,75.29
2023-06-23T07:47:51.527Z,75.85
2023-06-23T07:50:19.159Z,76.47
2023-06-23T07:52:48.657Z,75.24
2023-06-23T07:55:20.416Z,74.02
2023-06-23T07:57:48.216Z,73.87
2023-06-23T08:00:18.423Z,74.07
2023-06-23T08:02:46.356Z,73.98
2023-06-23T08:05:14.198Z,74.31
2023-06-23T08:07:41.895Z,74.79
2023-06-23T08:10:10.526Z,73.25
2023-06-23T08:12:38.718Z,73.11
2023-06-23T08:15:07.338Z,73.12
2023-06-23T08:17:36.961Z,71.77
2023-06-23T08:20:05.269Z,72.61
2023-06-23T08:22:32.894Z,73.24
2023-06-23T08:25:00.611Z,72.51
2023-06-23T08:27:28.302Z,72.37
2023-06-23T08:29:55.928Z,72.92
2023-06-23T08:32:23.720Z,71.12
2023-06-23T08:34:52.813Z,71.32
2023-06-23T08:37:20.401Z,71.76
2023-06-23T08:39:48.141Z,70.89
2023-06-23T08:42:16.178Z,70.54
2023-06-23T08:44:44.832Z,70.16
2023-06-23T08:47:15.340Z,69.58
2023-06-23T08:49:43.586Z,69.56
2023-06-23T08:52:13.025Z,68.65
2023-06-23T08:54:40.908Z,68.10
2023-06-23T08:57:09.185Z,66.07
2023-06-23T08:59:36.866Z,67.34
2023-06-23T09:02:06.085Z,67.29
2023-06-23T09:04:33.797Z,67.00
2023-06-23T09:07:01.541Z,67.12
2023-06-23T09:09:32.788Z,67.24
2023-06-23T09:12:01.867Z,66.75
2023-06-23T09:14:30.812Z,65.74
2023-06-23T09:16:59.369Z,65.98
2023-06-23T09:19:27.325Z,66.09
2023-06-23T09:21:55.263Z,67.03
2023-06-23T09:24:23.351Z,66.60
2023-06-23T09:26:53.675Z,66.68
2023-06-23T09:29:23.027Z,65.27
2023-06-23T09:31:52.505Z,65.42
2023-06-23T09:34:24.279Z,64.82
2023-06-23T09:36:53.645Z,64.22
2023-06-23T09:39:21.631Z,64.74
2023-06-23T09:41:58.832Z,63.65
2023-06-23T09:44:34.839Z,64.37
2023-06-23T09:47:02.873Z,63.38
2023-06-23T09:49:30.728Z,63.25
2023-06-23T09:51:58.469Z,61.56
2023-06-23T09:54:36.268Z,61.94
2023-06-23T09:57:06.888Z,62.70
2023-06-23T09:59:34.621Z,62.18
2023-06-23T10:02:02.575Z,61.51
2023-06-23T10:04:31.074Z,61.64
2023-06-23T10:06:59.379Z,61.44
2023-06-23T10:09:27.657Z,61.34
2023-06-23T10:11:55.316Z,61.51
2023-06-23T10:14:24.417Z,61.67
2023-06-23T10:16:58.510Z,62.11
2023-06-23T10:19:26.316Z,60.90
2023-06-23T10:21:55.278Z,60.54
2023-06-23T10:24:24.363Z,61.39
2023-06-23T10:26:53.138Z,60.99
2023-06-23T10:29:21.577Z,60.22
2023-06-23T10:31:51.627Z,60.77
2023-06-23T10:34:21.120Z,59.36
2023-06-23T10:36:53.146Z,60.24
2023-06-23T10:39:20.931Z,59.09
2023-06-23T10:41:52.549Z,59.86
2023-06-23T10:44:20.985Z,59.55
2023-06-23T10:46:50.820Z,59.08
2023-06-23T10:49:21.319Z,58.48
2023-06-23T10:51:51.313Z,57.94
2023-06-23T10:54:28.334Z,57.87
2023-06-23T10:56:56.725Z,58.57
2023-06-23T10:59:25.478Z,58.35
2023-06-23T11:02:11.635Z,58.58
2023-06-23T11:04:42.580Z,57.04
2023-06-23T11:07:11.411Z,56.07
2023-06-23T11:09:46.120Z,56.63
2023-06-23T11:12:43.120Z,56.05
2023-06-23T11:15:17.363Z,56.56
2023-06-23T11:17:47.681Z,55.92
2023-06-23T11:20:29.720Z,56.00
2023-06-23T11:22:57.745Z,56.83
2023-06-23T11:25:26.041Z,56.11
2023-06-23T11:28:26.914Z,55.13
2023-06-23T11:30:56.089Z,54.19
2023-06-23T11:33:28.713Z,54.33
2023-06-23T11:35:56.589Z,53.83
2023-06-23T11:38:24.266Z,54.92
2023-06-23T11:40:52.416Z,54.32
2023-06-23T11:43:25.863Z,53.98
2023-06-23T11:45:57.047Z,54.45
2023-06-23T11:48:29.717Z,54.40
2023-06-23T11:50:57.870Z,52.08
2023-06-23T11:53:25.707Z,52.10
2023-06-23T11:55:54.321Z,52.17
2023-06-23T11:58:21.938Z,52.39
2023-06-23T12:00:49.764Z,50.70
2023-06-23T12:03:18.387Z,51.18
2023-06-23T12:05:47.722Z,52.34
2023-06-23T12:08:15.510Z,52.83
2023-06-23T12:10:43.424Z,52.16
2023-06-23T12:13:12.108Z,50.55
2023-06-23T12:15:40.034Z,50.77
2023-06-23T12:18:08.380Z,50.64
2023-06-23T12:20:36.646Z,50.55
2023-06-23T12:23:09.988Z,49.18
2023-06-23T12:25:40.239Z,50.38
2023-06-23T12:28:13.490Z,50.16
2023-06-23T12:30:42.713Z,49.83
2023-06-23T12:33:17.328Z,50.26
2023-06-23T12:35:57.359Z,50.83
2023-06-23T12:38:26.497Z,50.85
2023-06-23T12:40:54.269Z,50.46
2023-06-23T12:43:22.655Z,50.91
2023-06-23T12:45:50.956Z,51.53
2023-06-23T12:48:22.131Z,49.55
2023-06-23T12:50:49.871Z,50.45
2023-06-23T12:53:17.682Z,51.16
2023-06-23T12:55:47.194Z,48.93
2023-06-23T12:58:14.849Z,48.76
2023-06-23T13:00:44.250Z,49.53
2023-06-23T13:03:15.388Z,49.45
2023-06-23T13:05:45.467Z,50.16
2023-06-23T13:08:14.324Z,50.49
2023-06-23T13:10:43.005Z,50.82
2023-06-23T13:13:12.683Z,49.80
2023-06-23T13:15:40.414Z,49.98
2023-06-23T13:18:08.469Z,48.68
2023-06-23T13:20:36.274Z,49.68
2023-06-23T13:23:04.066Z,50.19
2023-06-23T13:25:32.319Z,50.25
2023-06-23T13:28:00.184Z,49.51
2023-06-23T13:30:29.736Z,49.45
2023-06-23T13:32:57.506Z,49.00
2023-06-23T13:35:25.451Z,48.59
2023-06-23T13:37:55.583Z,48.63
2023-06-23T13:40:23.251Z,47.89
2023-06-23T13:42:50.993Z,48.00
2023-06-23T13:45:18.854Z,48.26
2023-06-23T13:47:47.967Z,47.69
2023-06-23T13:50:16.745Z,47.49
2023-06-23T13:52:45.782Z,48.52
2023-06-23T13:55:14.632Z,47.63
2023-06-23T13:57:45.662Z,47.90
2023-06-23T14:00:15.516Z,48.25
2023-06-23T14:02:43.481Z,48.43
2023-06-23T14:05:15.239Z,48.48
2023-06-23T14:07:43.106Z,48.12
2023-06-23T14:10:11.469Z,48.30
2023-06-23T14:12:39.130Z,48.68
2023-06-23T14:15:08.218Z,47.09
2023-06-23T14:17:35.916Z,47.08
2023-06-23T14:20:03.874Z,46.39
2023-06-23T14:22:33.184Z,46.73
2023-06-23T14:25:00.842Z,47.17
2023-06-23T14:27:29.284Z,47.12
2023-06-23T14:29:56.970Z,47.11
2023-06-23T14:32:24.910Z,47.48
2023-06-23T14:34:52.580Z,47.33
2023-06-23T14:37:20.172Z,46.24
2023-06-23T14:39:52.188Z,47.04
2023-06-23T14:42:20.550Z,48.09
2023-06-23T14:44:48.211Z,48.14
2023-06-23T14:47:15.790Z,47.97
2023-06-23T14:49:43.480Z,48.45
2023-06-23T14:52:11.255Z,48.78
2023-06-23T14:54:38.974Z,47.78
2023-06-23T14:57:08.473Z,47.77
2023-06-23T14:59:36.156Z,47.56
2023-06-23T15:02:04.059Z,48.01
2023-06-23T15:04:32.666Z,48.52
2023-06-23T15:07:00.365Z,48.62
2023-06-23T15:09:29.293Z,48.83
2023-06-23T15:11:57.027Z,48.75
2023-06-23T15:14:26.410Z,49.15
2023-06-23T15:16:54.131Z,49.31
2023-06-23T15:19:21.958Z,50.10
2023-06-23T15:21:49.686Z,50.08
2023-06-23T15:24:17.361Z,50.19
2023-06-23T15:26:44.996Z,50.18
2023-06-23T15:29:12.781Z,50.06
2023-06-23T15:31:41.859Z,49.79
2023-06-23T15:34:09.513Z,49.57
2023-06-23T15:36:37.209Z,47.88
2023-06-23T15:39:05.139Z,48.83
2023-06-23T15:41:32.788Z,48.48
2023-06-23T15:44:00.418Z,48.30
2023-06-23T15:46:28.066Z,48.33
2023-06-23T15:48:57.022Z,48.44
2023-06-23T15:51:24.771Z,48.81
2023-06-23T15:53:52.407Z,48.60
2023-06-23T15:56:20.092Z,49.08
2023-06-23T15:58:47.696Z,49.79
2023-06-23T16:01:15.330Z,48.86
2023-06-23T16:03:43.394Z,49.65
2023-06-23T16:06:12.586Z,49.78
2023-06-23T16:08:40.207Z,49.25
2023-06-23T16:11:09.797Z,49.79
2023-06-23T16:13:39.168Z,50.18
2023-06-23T16:16:07.051Z,49.02
2023-06-23T16:18:34.824Z,48.34
2023-06-23T16:21:02.506Z,48.75
2023-06-23T16:23:31.718Z,47.80
2023-06-23T16:25:59.352Z,47.81
2023-06-23T16:28:27.016Z,47.63
2023-06-23T16:30:55.188Z,47.50
2023-06-23T16:33:22.867Z,47.08
2023-06-23T16:35:50.626Z,47.30
2023-06-23T16:38:18.282Z,47.09
2023-06-23T16:40:47.316Z,46.94
2023-06-23T16:43:14.961Z,46.94
2023-06-23T16:45:42.688Z,47.49
2023-06-23T16:48:10.497Z,46.93
2023-06-23T16:50:38.282Z,46.90
2023-06-23T16:53:07.620Z,45.90
2023-06-23T16:55:35.592Z,46.45
2023-06-23T16:58:04.686Z,46.25
2023-06-23T17:00:32.935Z,46.14
2023-06-23T17:03:01.140Z,46.06
2023-06-23T17:05:28.973Z,46.08
2023-06-23T17:07:56.631Z,46.51
2023-06-23T17:10:24.403Z,46.06
2023-06-23T17:12:52.190Z,46.06
2023-06-23T17:15:21.442Z,45.70
2023-06-23T17:17:49.160Z,46.05
2023-06-23T17:20:16.905Z,46.20
2023-06-23T17:22:44.584Z,46.37
2023-06-23T17:25:13.179Z,46.11
2023-06-23T17:27:41.050Z,46.45
2023-06-23T17:30:10.057Z,46.52
2023-06-23T17:32:39.126Z,46.70
2023-06-23T17:35:07.242Z,46.47
2023-06-23T17:37:34.988Z,47.13
2023-06-23T17:40:02.655Z,47.09
2023-06-23T17:42:30.246Z,46.99
2023-06-23T17:44:57.892Z,47.38
2023-06-23T17:47:26.679Z,47.35
2023-06-23T17:49:56.239Z,47.46
2023-06-23T17:52:23.979Z,47.56
2023-06-23T17:54:51.591Z,48.09
2023-06-23T17:57:19.249Z,48.09
2023-06-23T17:59:46.836Z,48.51
2023-06-23T18:02:17.992Z,48.10
2023-06-23T18:04:47.039Z,48.47
2023-06-23T18:07:16.221Z,48.83
2023-06-23T18:09:43.865Z,49.22
2023-06-23T18:12:11.545Z,49.70
2023-06-23T18:14:39.197Z,49.63
2023-06-23T18:17:07.392Z,49.83
2023-06-23T18:19:35.086Z,50.11
2023-06-23T18:22:02.691Z,50.56
2023-06-23T18:24:31.696Z,50.52
2023-06-23T18:26:59.520Z,50.94
2023-06-23T18:29:27.162Z,50.80
2023-06-23T18:31:57.687Z,51.19
2023-06-23T18:34:25.331Z,51.28
2023-06-23T18:36:53.082Z,51.82
2023-06-23T18:39:20.810Z,51.48
2023-06-23T18:41:49.791Z,51.83
2023-06-23T18:44:19.971Z,51.91
2023-06-23T18:46:47.616Z,52.19
2023-06-23T18:49:15.377Z,52.75
2023-06-23T18:51:43.043Z,52.70
2023-06-23T18:54:10.622Z,53.12
2023-06-23T18:56:38.363Z,53.38
2023-06-23T18:59:07.505Z,53.92
2023-06-23T19:01:35.114Z,53.64
2023-06-23T19:04:02.727Z,54.54
2023-06-23T19:06:30.383Z,54.27
2023-06-23T19:08:58.775Z,55.02
2023-06-23T19:11:27.016Z,55.23
2023-06-23T19:13:54.716Z,55.50
2023-06-23T19:16:23.709Z,55.66
2023-06-23T19:18:51.343Z,56.01
2023-06-23T19:21:18.977Z,56.42
2023-06-23T19:23:48.818Z,56.03
2023-06-23T19:26:16.553Z,56.92
2023-06-23T19:28:44.274Z,57.14
2023-06-23T19:31:11.908Z,57.95
2023-06-23T19:33:40.979Z,58.08
2023-06-23T19:36:08.838Z,58.74
2023-06-23T19:38:36.448Z,59.16
2023-06-23T19:41:05.030Z,59.46
2023-06-23T19:43:32.661Z,60.46
2023-06-23T19:46:00.321Z,60.79
2023-06-23T19:48:27.964Z,60.93
2023-06-23T19:50:56.933Z,61.45
2023-06-23T19:53:24.823Z,62.02
2023-06-23T19:55:52.478Z,61.88
2023-06-23T19:58:20.971Z,62.71
2023-06-23T20:00:48.756Z,62.70
2023-06-23T20:03:16.612Z,62.54
2023-06-23T20:05:44.444Z,62.84
2023-06-23T20:08:13.463Z,62.84
2023-06-23T20:10:41.089Z,62.86
2023-06-23T20:13:09.926Z,63.43
2023-06-23T20:15:37.611Z,63.79
2023-06-23T20:18:05.650Z,63.77
2023-06-23T20:20:34.389Z,63.57
2023-06-23T20:23:03.313Z,63.61
2023-06-23T20:25:32.316Z,63.13
2023-06-23T20:27:59.983Z,63.38
2023-06-23T20:30:28.679Z,63.66
2023-06-23T20:32:56.382Z,64.66
2023-06-23T20:35:24.036Z,64.86
2023-06-23T20:37:52.826Z,64.96
2023-06-23T20:40:20.975Z,64.97
2023-06-23T20:42:50.025Z,64.71
2023-06-23T20:45:20.702Z,65.20
2023-06-23T20:47:48.524Z,65.27
2023-06-23T20:50:16.463Z,65.95
2023-06-23T20:52:44.137Z,65.92
2023-06-23T20:55:12.018Z,65.92
2023-06-23T20:57:39.684Z,66.80
2023-06-23T21:00:10.375Z,67.00
2023-06-23T21:02:38.127Z,67.35
2023-06-23T21:05:06.299Z,68.26
2023-06-23T21:07:33.954Z,68.45
2023-06-23T21:10:02.728Z,69.15
2023-06-23T21:12:33.556Z,68.77
2023-06-23T21:15:05.602Z,69.08
2023-06-23T21:17:34.969Z,68.88
2023-06-23T21:20:02.602Z,68.99
2023-06-23T21:22:30.261Z,69.43
2023-06-23T21:24:57.975Z,69.30
2023-06-23T21:27:25.815Z,69.25
2023-06-23T21:29:53.859Z,69.10
2023-06-23T21:32:22.250Z,68.93
2023-06-23T21:34:51.239Z,68.81
2023-06-23T21:37:18.983Z,68.25
2023-06-23T21:39:46.817Z,68.18
2023-06-23T21:42:14.486Z,68.20
2023-06-23T21:44:42.797Z,68.35
2023-06-23T21:47:11.369Z,68.21
2023-06-23T21:49:39.099Z,68.20
2023-06-23T21:52:09.032Z,68.99
2023-06-23T21:54:37.422Z,68.64
2023-06-23T21:57:05.447Z,69.01
2023-06-23T21:59:33.086Z,69.41
2023-06-23T22:02:00.770Z,69.21
2023-06-23T22:04:28.461Z,68.96
2023-06-23T22:06:56.092Z,69.01
2023-06-23T22:09:25.049Z,69.12
2023-06-23T22:11:54.248Z,69.51
2023-06-23T22:14:26.099Z,69.44
2023-06-23T22:16:54.331Z,69.49
2023-06-23T22:19:22.122Z,69.38
2023-06-23T22:21:49.859Z,69.36
2023-06-23T22:24:17.997Z,69.90
2023-06-23T22:26:47.203Z,69.96
2023-06-23T22:29:14.817Z,70.59
2023-06-23T22:31:42.524Z,70.27
2023-06-23T22:34:10.276Z,70.90
2023-06-23T22:36:37.914Z,71.50
2023-06-23T22:39:05.616Z,72.23
2023-06-23T22:41:34.443Z,72.34
2023-06-23T22:44:03.412Z,73.99
2023-06-23T22:46:31.339Z,73.77
2023-06-23T22:48:59.136Z,73.53
2023-06-23T22:51:32.434Z,73.58
2023-06-23T22:54:00.144Z,73.60
2023-06-23T22:56:28.164Z,73.05
2023-06-23T22:58:55.831Z,74.06
2023-06-23T23:01:25.207Z,75.53
2023-06-23T23:03:53.103Z,76.55
2023-06-23T23:06:20.858Z,77.19
2023-06-23T23:08:49.574Z,77.58
2023-06-23T23:11:17.267Z,77.63
2023-06-23T23:13:44.935Z,76.77
2023-06-23T23:16:13.771Z,76.16
2023-06-23T23:18:44.568Z,75.40
2023-06-23T23:21:12.657Z,75.21
2023-06-23T23:23:40.319Z,74.93
2023-06-23T23:26:07.984Z,74.71
2023-06-23T23:28:35.649Z,74.82
2023-06-23T23:31:03.320Z,74.66
2023-06-23T23:33:31.283Z,74.87
2023-06-23T23:36:03.102Z,74.81
2023-06-23T23:38:30.964Z,74.54
2023-06-23T23:40:59.188Z,74.54
2023-06-23T23:43:26.942Z,74.70
2023-06-23T23:45:55.010Z,74.76
2023-06-23T23:48:22.704Z,74.69
2023-06-23T23:50:50.422Z,74.67
2023-06-23T23:53:19.443Z,74.81
2023-06-23T23:55:47.089Z,74.73
2023-06-23T23:58:14.755Z,74.65
